• Join FlightAware (Why Join?)
  • Login
  • US Flag 
11:17AM EDT


 

Airport Tracker/Info


-or-


 

Live Flight TrackerFlight Track Log ✈ ACA301 ✈ 02-Jul-2013 ✈ KDCA - CYYZ

Flight Track Log - Related Links

Times and Time Zones

All times are in EDT time to prevent confusion due to time zone crossing. See the ACA301 flight status page for this flight to view local times or setup timezone preferences in your user account.

Time Position Orientation Groundspeed Altitude Reporting Facility
EDT Latitude Longitude Course Direction KTS MPH feet Rate Location/Type
06:03AM 38.7500 -77.0667 North 196 226 5,200  Level Potomac TRACON
06:04AM 39.2827 -77.2607 337° Northwest  Level FlightAware Approximate
06:04AM 38.7667 -77.1333 288° West 214 246 9,100  Level Potomac TRACON
06:05AM 39.3926 -77.3197 346° North  Level FlightAware Approximate
06:05AM 38.8167 -77.2000 314° West 294 338 10,600  Level Potomac TRACON
06:06AM 39.5000 -77.3833 330° Northwest  Level FlightAware Approximate
06:07AM 39.6130 -77.4318 342° North  Level FlightAware Approximate
06:07AM 38.9631 -77.3536 321° Northwest 373 429 15,900  Level Washington Center
06:08AM 39.7275 -77.4500 North  Level FlightAware Approximate
06:08AM 39.0514 -77.4358 324° Northwest 379 436 17,000  Level Washington Center
06:09AM 39.1397 -77.5158 325° Northwest 392 451 17,000  Level Washington Center
06:10AM 39.2392 -77.5639 339° North 379 436 17,000 1,200 Level Washington Center
06:11AM 39.3561 -77.5375 10° North 379 436 19,500 2,040 Climbing Washington Center
06:14AM 39.6547 -77.4639 11° North 446 513 24,200 1,800 Climbing New York Center
06:15AM 39.7817 -77.5031 347° North 459 528 25,900 1,620 Climbing New York Center
06:16AM 39.9106 -77.5481 345° North 464 534 27,500 1,500 Climbing New York Center
06:17AM 40.0411 -77.5961 344° North 469 540 29,000 1,260 Climbing New York Center
06:18AM 40.1883 -77.6458 346° North 481 554 30,000 480 Climbing New York Center
06:19AM 40.3089 -77.6878 345° North 496 571 30,000  Level New York Center
06:20AM 40.5306 -77.7667 345° North 490 564 30,000  Level Cleveland Center
06:21AM 40.6778 -77.8206 344° North 490 564 30,000  Level Cleveland Center
06:22AM 40.8083 -77.8644 346° North 490 564 30,000  Level Cleveland Center
06:23AM 40.9428 -77.9111 345° North 490 564 30,000  Level Cleveland Center
06:24AM 41.0753 -77.9608 344° North 490 564 30,000  Level Cleveland Center
06:25AM 41.2056 -78.0081 345° North 490 564 30,000  Level Cleveland Center
06:26AM 41.3358 -78.0556 345° North 490 564 30,000  Level Cleveland Center
06:27AM 41.4683 -78.1031 345° North 490 564 30,000  Level Cleveland Center
06:28AM 41.6006 -78.1506 345° North 490 564 30,000  Level Cleveland Center
06:29AM 41.7308 -78.1986 345° North 485 558 30,000  Level Cleveland Center
06:30AM 41.8508 -78.2444 344° North 485 558 30,000  Level Cleveland Center
06:31AM 41.9789 -78.2900 345° North 480 552 30,000  Level Cleveland Center
06:32AM 42.1131 -78.3383 345° North 480 552 30,000  Level Cleveland Center
06:33AM 42.2456 -78.3869 345° North 480 552 30,000 -240 Level Cleveland Center
06:34AM 42.3736 -78.4386 343° North 480 552 29,600 -960 Descending Cleveland Center
06:35AM 42.5017 -78.4878 344° North 480 552 28,100 -900 Descending Cleveland Center
06:36AM 42.6297 -78.5317 346° North 480 552 27,900 -1,020 Descending Cleveland Center
06:37AM 42.7575 -78.5811 344° North 480 552 26,100 -2,040 Descending Cleveland Center
06:38AM 42.8939 -78.6333 344° North 472 543 23,900 -2,160 Descending Cleveland Center
06:39AM 42.9831 -78.7328 321° Northwest 421 484 21,800 -1,980 Descending Cleveland Center
06:41AM 43.1000 -78.9500 306° West 380 437 18,100 -1,860 Descending Toronto Center
06:42AM 43.1500 -79.0667 300° West 370 426 16,400 -1,800 Descending Toronto Center
06:43AM 43.2167 -79.1833 308° West 360 414 14,600 -1,680 Descending Toronto Center
06:44AM 43.2667 -79.2667 310° West 350 403 13,100 -1,500 Descending Toronto Center
06:45AM 43.3333 -79.3500 318° Northwest 310 357 11,600 -1,500 Descending Toronto Center
06:46AM 43.4167 -79.3833 344° North 310 357 10,200 -1,320 Descending Toronto Center
06:47AM 43.4833 -79.4333 331° Northwest 300 345 9,000 -780 Descending Toronto Center
06:48AM 43.5500 -79.4667 340° North 280 322 8,700 -840 Descending Toronto Center
06:49AM 43.5667 -79.5667 283° West 250 288 7,400 -1,620 Descending Toronto Center
06:50AM 43.5167 -79.6333 224° Southwest 240 276 5,500 -1,740 Descending Toronto Center
06:51AM 43.4667 -79.7000 224° Southwest 230 265 4,000 -780 Descending Toronto Center
06:52AM 43.4333 -79.7667 235° Southwest 220 253 4,000 -60 Level Toronto Center
06:53AM 43.4833 -79.8167 324° Northwest 220 253 3,900  Descending Toronto Center
06:54AM 43.5333 -79.7667 36° Northeast 180 207 4,000 -360 Climbing Toronto Center
06:55AM 43.5500 -79.7167 65° Northeast 160 184 3,200 -840 Descending Toronto Center
06:56AM 43.5833 -79.7000 20° North 160 184 2,400 -840 Descending Toronto Center